Time;durP1;ratioP1;P1;durP2;ratioP2;P2;SDS_P1;SDS_P2;PMS_P1;PMS_P2;Temp;Humidity;BMP_temperature;BMP_pressure;BME280_temperature;BME280_humidity;BME280_pressure;Samples;Min_cycle;Max_cycle;Signal;HPM_P1;HPM_P2
2024/03/23 00:01:58;;;;;;;26.70;7.30;;;6.70;99.90;;;;;;5030895;28;20086;-87
2024/03/23 00:04:24;;;;;;;24.70;8.05;;;6.70;99.90;;;;;;5061228;28;20226;-87
2024/03/23 00:06:51;;;;;;;23.25;7.68;;;6.60;99.90;;;;;;5030327;28;20052;-87
2024/03/23 00:09:17;;;;;;;32.65;7.70;;;6.70;99.90;;;;;;5037275;28;20045;-87
2024/03/23 00:11:44;;;;;;;33.03;9.25;;;6.70;99.90;;;;;;5041683;28;20049;-77
2024/03/23 00:14:11;;;;;;;39.17;9.65;;;6.60;99.90;;;;;;5043777;28;20292;-77
2024/03/23 00:16:38;;;;;;;27.48;7.68;;;6.70;99.90;;;;;;5080001;28;20061;-77
2024/03/23 00:19:06;;;;;;;33.00;8.98;;;6.60;99.90;;;;;;5059519;28;20052;-77
2024/03/23 00:21:38;;;;;;;41.50;9.07;;;6.60;99.90;;;;;;5042486;28;20088;-77
2024/03/23 00:24:06;;;;;;;28.15;8.48;;;6.60;99.90;;;;;;5053183;28;20036;-77
2024/03/23 00:26:32;;;;;;;38.42;9.38;;;6.60;99.90;;;;;;5032671;28;20060;-77
2024/03/23 00:28:59;;;;;;;35.40;10.32;;;6.70;99.90;;;;;;5045960;28;20122;-78
2024/03/23 00:31:26;;;;;;;38.17;9.15;;;6.60;99.90;;;;;;5045455;28;20045;-77
2024/03/23 00:33:53;;;;;;;31.17;9.23;;;6.60;99.90;;;;;;5047809;28;20127;-77
2024/03/23 00:36:19;;;;;;;39.25;9.23;;;6.60;99.90;;;;;;5047438;28;20415;-77
2024/03/23 00:38:46;;;;;;;35.67;10.23;;;6.60;99.90;;;;;;5059810;28;20110;-77
2024/03/23 00:41:13;;;;;;;30.58;8.30;;;6.60;99.90;;;;;;5045210;28;20059;-77
2024/03/23 00:43:39;;;;;;;26.10;8.65;;;6.60;99.90;;;;;;5061551;28;20053;-77
2024/03/23 00:46:06;;;;;;;30.75;8.15;;;6.60;99.90;;;;;;5045355;28;20036;-78
2024/03/23 00:48:33;;;;;;;28.50;9.13;;;6.60;99.90;;;;;;5077336;28;20045;-88
2024/03/23 00:51:00;;;;;;;33.50;9.07;;;6.60;99.90;;;;;;5051429;28;20530;-87
2024/03/23 00:53:26;;;;;;;36.20;9.07;;;6.60;99.90;;;;;;5048374;28;20060;-87
2024/03/23 00:55:52;;;;;;;40.67;9.88;;;6.50;99.90;;;;;;5032243;28;20437;-87
2024/03/23 00:58:18;;;;;;;42.67;10.10;;;6.40;99.90;;;;;;5052265;28;20098;-87
2024/03/23 01:00:44;;;;;;;26.90;9.25;;;6.50;99.90;;;;;;5063312;28;20044;-87
2024/03/23 01:03:09;;;;;;;41.92;9.43;;;6.40;99.90;;;;;;5047111;28;20036;-87
2024/03/23 01:05:35;;;;;;;26.23;8.52;;;6.40;99.90;;;;;;5049338;28;20107;-87
2024/03/23 01:08:01;;;;;;;40.20;9.77;;;6.40;99.90;;;;;;5051170;28;20045;-87
2024/03/23 01:10:27;;;;;;;38.85;9.77;;;6.40;99.90;;;;;;5051293;28;20248;-87
2024/03/23 01:12:53;;;;;;;28.25;8.68;;;6.30;99.90;;;;;;5078044;28;20044;-87
2024/03/23 01:15:19;;;;;;;24.83;7.70;;;6.30;99.90;;;;;;5065887;28;20044;-87
2024/03/23 01:17:44;;;;;;;35.92;9.35;;;6.20;99.90;;;;;;5045570;28;20094;-87
2024/03/23 01:20:11;;;;;;;31.35;8.15;;;6.20;99.90;;;;;;5060686;28;20585;-87
2024/03/23 01:22:36;;;;;;;20.25;7.03;;;6.10;99.90;;;;;;5065366;28;20108;-87
2024/03/23 01:25:03;;;;;;;23.67;7.38;;;6.10;99.90;;;;;;5050825;28;20120;-87
2024/03/23 01:27:29;;;;;;;25.23;7.28;;;6.00;99.90;;;;;;5049027;28;20090;-87
2024/03/23 01:29:54;;;;;;;19.27;6.85;;;6.00;99.90;;;;;;5056017;28;20072;-87
2024/03/23 01:32:20;;;;;;;33.13;8.45;;;5.90;99.90;;;;;;5048012;28;20153;-87
2024/03/23 01:34:46;;;;;;;29.48;7.75;;;5.80;99.90;;;;;;5049817;28;20044;-87
2024/03/23 01:37:12;;;;;;;25.15;7.85;;;5.80;99.90;;;;;;5060726;28;20401;-87
2024/03/23 01:39:40;;;;;;;30.08;8.65;;;5.70;99.90;;;;;;5065835;28;20497;-87
2024/03/23 01:42:06;;;;;;;27.75;8.30;;;5.70;99.90;;;;;;5057691;28;20040;-86
2024/03/23 01:44:32;;;;;;;33.95;8.05;;;5.70;99.90;;;;;;5050042;28;20097;-87
2024/03/23 01:46:58;;;;;;;37.38;9.55;;;5.80;99.90;;;;;;5049621;28;20044;-87
2024/03/23 01:49:24;;;;;;;18.92;6.88;;;5.60;99.90;;;;;;5064656;28;20146;-86
2024/03/23 01:51:50;;;;;;;23.05;7.40;;;5.60;99.90;;;;;;5044749;28;20101;-86
2024/03/23 01:54:16;;;;;;;19.23;6.40;;;5.60;99.90;;;;;;5061550;28;20048;-87
2024/03/23 01:56:42;;;;;;;21.83;6.25;;;5.50;99.90;;;;;;5068492;28;20083;-87
2024/03/23 01:59:08;;;;;;;25.38;6.57;;;5.40;99.90;;;;;;5063647;28;20093;-87
2024/03/23 02:01:37;;;;;;;21.67;6.57;;;5.40;99.90;;;;;;5065810;28;20029;-87
2024/03/23 02:04:05;;;;;;;24.67;7.28;;;5.30;99.90;;;;;;5081129;28;20051;-87
2024/03/23 02:06:31;;;;;;;20.40;6.97;;;5.10;99.90;;;;;;5048789;28;20052;-86
2024/03/23 02:08:57;;;;;;;17.40;6.13;;;5.20;99.90;;;;;;5048894;28;20070;-87
2024/03/23 02:11:23;;;;;;;19.83;5.97;;;5.20;99.90;;;;;;5060586;28;20052;-86
2024/03/23 02:13:49;;;;;;;20.83;6.00;;;5.10;99.90;;;;;;5057452;28;20466;-87
2024/03/23 02:16:15;;;;;;;19.23;6.55;;;5.10;99.90;;;;;;5064465;28;20047;-87
2024/03/23 02:18:41;;;;;;;26.55;7.78;;;5.00;99.90;;;;;;5057600;28;20041;-87
2024/03/23 02:21:06;;;;;;;19.50;6.53;;;5.00;99.90;;;;;;5059765;28;20064;-86
2024/03/23 02:23:33;;;;;;;25.10;6.90;;;4.90;99.90;;;;;;5048718;28;20066;-87
2024/03/23 02:25:59;;;;;;;18.70;6.35;;;4.90;99.90;;;;;;5046691;28;20055;-87
2024/03/23 02:28:25;;;;;;;16.77;5.63;;;4.90;99.90;;;;;;5061327;28;20040;-86
2024/03/23 02:30:50;;;;;;;26.15;6.22;;;4.90;99.90;;;;;;5049984;28;20071;-85
2024/03/23 02:33:16;;;;;;;25.00;6.72;;;4.90;99.90;;;;;;5048341;28;20067;-86
2024/03/23 02:35:43;;;;;;;22.52;7.93;;;4.80;99.90;;;;;;5061571;28;20044;-86
2024/03/23 02:38:09;;;;;;;23.40;6.88;;;4.70;99.90;;;;;;5049742;28;20036;-86
2024/03/23 02:40:36;;;;;;;19.98;6.57;;;4.70;99.90;;;;;;5063180;28;20048;-87
2024/03/23 02:43:03;;;;;;;20.90;6.93;;;4.70;99.90;;;;;;5061960;28;20051;-87
2024/03/23 02:45:29;;;;;;;20.67;6.38;;;4.70;99.90;;;;;;5062954;28;20053;-87
2024/03/23 02:47:55;;;;;;;23.15;6.90;;;4.70;99.90;;;;;;5044329;28;20134;-86
2024/03/23 02:50:21;;;;;;;23.15;6.22;;;4.70;99.90;;;;;;5047732;28;20520;-86
2024/03/23 02:52:47;;;;;;;24.38;6.90;;;4.70;99.90;;;;;;5064238;28;20055;-87
2024/03/23 02:55:14;;;;;;;26.10;7.38;;;4.60;99.90;;;;;;5060761;28;20048;-86
2024/03/23 02:57:40;;;;;;;18.33;6.57;;;4.60;99.90;;;;;;5046672;28;20536;-86
2024/03/23 03:00:07;;;;;;;21.10;6.03;;;4.70;99.90;;;;;;5047765;28;20036;-86
2024/03/23 03:02:36;;;;;;;19.40;6.28;;;4.50;99.90;;;;;;5038089;28;20075;-86
2024/03/23 03:05:02;;;;;;;21.20;6.75;;;4.50;99.90;;;;;;5048594;28;20044;-86
2024/03/23 03:07:28;;;;;;;25.45;7.40;;;4.50;99.90;;;;;;5047037;28;20052;-86
2024/03/23 03:09:54;;;;;;;27.00;7.57;;;4.50;99.90;;;;;;5046610;28;20519;-86
2024/03/23 03:12:20;;;;;;;23.20;7.13;;;4.50;99.90;;;;;;5062618;28;20072;-86
2024/03/23 03:14:45;;;;;;;22.08;7.05;;;4.50;99.90;;;;;;5058253;28;20048;-86
2024/03/23 03:17:11;;;;;;;22.05;7.72;;;4.50;99.90;;;;;;5062776;28;20072;-86
2024/03/23 03:19:37;;;;;;;20.30;6.38;;;4.50;99.90;;;;;;5051042;28;20045;-86
2024/03/23 03:22:04;;;;;;;20.30;6.35;;;4.50;99.90;;;;;;5046933;28;20543;-86
2024/03/23 03:24:30;;;;;;;18.90;6.80;;;4.40;99.90;;;;;;5046189;28;20102;-86
2024/03/23 03:26:56;;;;;;;19.42;5.68;;;4.40;99.90;;;;;;5048330;28;20044;-86
2024/03/23 03:29:21;;;;;;;17.55;5.55;;;4.40;99.90;;;;;;5062008;28;20094;-86
2024/03/23 03:31:48;;;;;;;21.40;6.45;;;4.40;99.90;;;;;;5060876;28;20040;-86
2024/03/23 03:34:13;;;;;;;21.20;6.90;;;4.40;99.90;;;;;;5063468;28;20037;-86
2024/03/23 03:36:42;;;;;;;21.05;6.15;;;4.30;99.90;;;;;;5042781;28;20033;-86
2024/03/23 03:39:08;;;;;;;18.48;6.63;;;4.30;99.90;;;;;;5057832;28;20037;-86
2024/03/23 03:41:33;;;;;;;19.55;6.43;;;4.20;99.90;;;;;;5051070;28;20102;-86
2024/03/23 03:44:01;;;;;;;21.13;6.68;;;4.20;99.90;;;;;;5042731;28;20050;-85
2024/03/23 03:46:31;;;;;;;19.27;6.63;;;4.20;99.90;;;;;;5047834;28;20429;-85
2024/03/23 03:48:56;;;;;;;22.65;6.78;;;4.20;99.90;;;;;;5065135;28;20040;-85
2024/03/23 03:51:22;;;;;;;25.25;7.32;;;4.20;99.90;;;;;;5060155;28;20109;-86
2024/03/23 03:53:48;;;;;;;21.40;6.53;;;4.20;99.90;;;;;;5069411;28;20036;-86
2024/03/23 03:56:14;;;;;;;16.98;5.68;;;4.10;99.90;;;;;;5077401;28;20392;-85
2024/03/23 03:58:40;;;;;;;19.45;6.05;;;4.10;99.90;;;;;;5080944;28;20080;-85
2024/03/23 04:01:06;;;;;;;19.85;6.05;;;4.10;99.90;;;;;;5064626;28;20115;-86
2024/03/23 04:03:32;;;;;;;18.70;6.60;;;4.10;99.90;;;;;;5081704;28;20047;-85
2024/03/23 04:05:57;;;;;;;21.58;6.53;;;4.10;99.90;;;;;;5042957;28;20687;-85
2024/03/23 04:08:24;;;;;;;19.65;5.88;;;4.00;99.90;;;;;;5051069;28;20050;-85
2024/03/23 04:10:50;;;;;;;13.60;5.60;;;4.00;99.90;;;;;;5065105;28;20076;-86
2024/03/23 04:13:16;;;;;;;13.13;5.50;;;4.00;99.90;;;;;;5062864;28;20131;-85
2024/03/23 04:15:42;;;;;;;16.90;5.22;;;3.90;99.90;;;;;;5048888;28;20041;-85
2024/03/23 04:18:11;;;;;;;17.90;5.38;;;3.90;99.90;;;;;;5063785;28;20040;-85
2024/03/23 04:20:37;;;;;;;21.35;6.88;;;3.80;99.90;;;;;;5049108;28;20090;-85
2024/03/23 04:23:03;;;;;;;15.88;6.00;;;3.80;99.90;;;;;;5047737;28;20443;-85
2024/03/23 04:25:29;;;;;;;17.27;6.35;;;3.80;99.90;;;;;;5061442;28;20124;-84
2024/03/23 04:27:54;;;;;;;18.15;5.95;;;3.70;99.90;;;;;;5049341;28;20041;-85
2024/03/23 04:30:21;;;;;;;17.77;5.75;;;3.70;99.90;;;;;;5047267;28;20044;-85
2024/03/23 04:32:47;;;;;;;18.92;6.50;;;3.70;99.90;;;;;;5065238;28;20048;-85
2024/03/23 04:35:13;;;;;;;18.75;6.38;;;3.70;99.90;;;;;;5061391;28;20045;-85
2024/03/23 04:37:42;;;;;;;17.25;6.20;;;3.70;99.90;;;;;;5048927;28;20408;-84
2024/03/23 04:40:09;;;;;;;16.47;6.37;;;3.60;99.90;;;;;;5049337;28;20119;-84
2024/03/23 04:42:34;;;;;;;19.13;6.18;;;3.60;99.90;;;;;;5064141;28;20055;-85
2024/03/23 04:45:01;;;;;;;18.33;6.53;;;3.60;99.90;;;;;;5060025;28;20036;-84
2024/03/23 04:47:27;;;;;;;20.63;6.60;;;3.50;99.90;;;;;;5049556;28;20036;-84
2024/03/23 04:49:52;;;;;;;22.52;6.70;;;3.40;99.90;;;;;;5046208;28;20037;-84
2024/03/23 04:52:19;;;;;;;18.42;6.15;;;3.50;99.90;;;;;;5063828;28;20739;-85
2024/03/23 04:54:45;;;;;;;12.60;5.97;;;3.40;99.90;;;;;;5062351;28;20124;-84
2024/03/23 04:57:11;;;;;;;21.05;6.63;;;3.50;99.90;;;;;;5041921;28;20052;-85
2024/03/23 04:59:37;;;;;;;16.90;6.65;;;3.50;99.90;;;;;;5064722;28;20392;-85
2024/03/23 05:02:03;;;;;;;16.02;6.43;;;3.50;99.90;;;;;;5043630;28;20693;-85
2024/03/23 05:04:29;;;;;;;19.10;6.00;;;3.50;99.90;;;;;;5041573;28;20040;-85
2024/03/23 05:06:54;;;;;;;16.45;5.65;;;3.40;99.90;;;;;;5074021;28;20122;-84
2024/03/23 05:09:21;;;;;;;16.17;6.15;;;3.40;99.90;;;;;;5071890;28;20079;-85
2024/03/23 05:11:47;;;;;;;16.70;6.13;;;3.50;99.90;;;;;;5044099;28;20469;-85
2024/03/23 05:14:14;;;;;;;23.50;7.10;;;3.30;99.90;;;;;;5043069;28;20047;-85
2024/03/23 05:16:39;;;;;;;20.15;6.80;;;3.30;99.90;;;;;;5062612;28;20053;-85
2024/03/23 05:19:05;;;;;;;19.52;7.95;;;3.30;99.90;;;;;;5037458;28;20041;-85
2024/03/23 05:21:31;;;;;;;15.40;5.90;;;3.30;99.90;;;;;;5061115;28;20060;-85
2024/03/23 05:23:57;;;;;;;19.75;6.07;;;3.30;99.90;;;;;;5057586;28;20051;-85
2024/03/23 05:26:23;;;;;;;21.45;6.68;;;3.30;99.90;;;;;;5049096;28;20106;-85
2024/03/23 05:28:49;;;;;;;18.08;5.85;;;3.20;99.90;;;;;;5039712;28;20048;-85
2024/03/23 05:31:27;;;;;;;19.17;6.03;;;3.20;99.90;;;;;;5046438;28;20037;-85
2024/03/23 05:33:53;;;;;;;17.85;5.47;;;3.20;99.90;;;;;;5065187;28;20044;-85
2024/03/23 05:36:19;;;;;;;18.60;5.68;;;3.20;99.90;;;;;;5057392;28;20564;-85
2024/03/23 05:38:45;;;;;;;18.27;5.57;;;3.20;99.90;;;;;;5062875;28;20425;-85
2024/03/23 05:41:10;;;;;;;17.95;6.43;;;3.20;99.90;;;;;;5047601;28;20143;-85
2024/03/23 05:43:36;;;;;;;24.75;6.38;;;3.20;99.90;;;;;;5055616;28;20044;-85
2024/03/23 05:46:02;;;;;;;17.73;6.15;;;3.20;99.90;;;;;;5043688;28;20033;-85
2024/03/23 05:48:30;;;;;;;28.38;7.03;;;3.20;99.90;;;;;;5060436;28;20471;-85
2024/03/23 05:50:55;;;;;;;21.48;6.45;;;3.30;99.90;;;;;;5058526;28;20045;-85
2024/03/23 05:53:21;;;;;;;25.83;6.85;;;3.50;99.90;;;;;;5056396;28;20106;-84
2024/03/23 05:55:50;;;;;;;27.75;7.22;;;3.70;99.90;;;;;;5044710;28;20040;-84
2024/03/23 05:58:18;;;;;;;26.13;6.25;;;3.90;99.90;;;;;;5056472;28;20067;-85
2024/03/23 06:00:44;;;;;;;24.50;6.65;;;4.10;99.90;;;;;;5047408;28;20080;-85
2024/03/23 06:03:10;;;;;;;25.35;6.85;;;4.20;99.90;;;;;;5059348;28;20040;-85
2024/03/23 06:05:37;;;;;;;21.33;6.70;;;4.40;99.90;;;;;;5047300;28;20051;-85
2024/03/23 06:08:04;;;;;;;24.55;7.10;;;4.60;99.90;;;;;;5051803;28;20049;-85
2024/03/23 06:10:30;;;;;;;26.83;7.65;;;4.70;99.90;;;;;;5059866;28;20124;-86
2024/03/23 06:12:55;;;;;;;24.05;5.88;;;4.90;99.90;;;;;;5042893;28;20155;-85
2024/03/23 06:15:22;;;;;;;23.90;6.40;;;4.90;99.90;;;;;;5038415;28;20041;-85
2024/03/23 06:17:49;;;;;;;20.42;5.03;;;4.90;99.90;;;;;;5065773;28;20052;-85
2024/03/23 06:20:15;;;;;;;20.70;4.97;;;5.00;99.90;;;;;;5065351;28;20074;-85
2024/03/23 06:22:41;;;;;;;17.02;4.90;;;5.00;99.90;;;;;;5049737;28;20044;-83
2024/03/23 06:25:12;;;;;;;8.88;3.10;;;5.00;99.90;;;;;;5050028;28;20048;-86
2024/03/23 06:27:38;;;;;;;7.82;2.15;;;5.00;99.90;;;;;;5051232;28;20127;-84
2024/03/23 06:30:06;;;;;;;7.22;2.13;;;5.10;99.90;;;;;;5075844;28;20060;-87
2024/03/23 06:32:32;;;;;;;8.50;2.35;;;5.00;99.90;;;;;;5064469;28;20965;-86
2024/03/23 06:34:58;;;;;;;6.25;1.83;;;5.00;99.90;;;;;;5049222;28;20045;-86
2024/03/23 06:37:24;;;;;;;8.13;2.60;;;4.90;99.90;;;;;;5044990;28;20090;-88
2024/03/23 06:39:49;;;;;;;9.00;2.20;;;4.90;99.90;;;;;;5035431;28;20059;-85
2024/03/23 06:42:15;;;;;;;8.10;1.92;;;4.90;99.90;;;;;;5063721;28;20041;-86
2024/03/23 06:44:41;;;;;;;7.97;2.72;;;4.90;99.90;;;;;;5060858;28;20048;-86
2024/03/23 06:47:07;;;;;;;7.97;2.00;;;4.90;99.90;;;;;;5031860;28;20083;-86
2024/03/23 06:49:33;;;;;;;9.18;1.88;;;4.90;99.90;;;;;;5054408;28;20041;-87
2024/03/23 06:51:59;;;;;;;10.57;2.95;;;4.90;99.90;;;;;;5055803;28;20052;-88
2024/03/23 06:54:26;;;;;;;9.48;2.60;;;4.90;99.90;;;;;;5062818;28;20444;-87
2024/03/23 06:56:52;;;;;;;9.98;3.05;;;4.90;99.90;;;;;;5056587;28;20071;-87
2024/03/23 06:59:18;;;;;;;9.15;2.45;;;4.80;99.90;;;;;;5072827;28;20504;-87
2024/03/23 07:01:44;;;;;;;15.32;3.65;;;4.80;99.90;;;;;;5047984;28;20052;-86
2024/03/23 07:04:09;;;;;;;11.70;3.60;;;4.80;99.90;;;;;;5066008;28;20047;-87
2024/03/23 07:06:42;;;;;;;14.30;3.80;;;4.80;99.90;;;;;;5046918;28;20040;-86
2024/03/23 07:09:08;;;;;;;13.05;3.97;;;4.90;99.90;;;;;;5048399;28;20054;-86
2024/03/23 07:11:35;;;;;;;16.25;3.95;;;4.80;99.90;;;;;;5047126;28;20045;-87
2024/03/23 07:14:02;;;;;;;16.13;4.55;;;4.90;99.90;;;;;;5051302;28;20550;-86
2024/03/23 07:16:28;;;;;;;17.05;4.90;;;4.90;99.90;;;;;;5086115;28;20140;-86
2024/03/23 07:18:55;;;;;;;17.98;5.80;;;4.90;99.90;;;;;;5071429;28;20101;-87
2024/03/23 07:21:21;;;;;;;22.65;5.15;;;5.10;99.90;;;;;;5049987;28;20045;-88
2024/03/23 07:23:47;;;;;;;16.55;4.72;;;5.20;99.90;;;;;;5066083;28;20040;-87
2024/03/23 07:26:13;;;;;;;18.00;5.30;;;5.20;99.90;;;;;;5067044;28;20094;-87
2024/03/23 07:28:43;;;;;;;16.75;5.05;;;5.40;99.90;;;;;;5052363;28;20095;-88
2024/03/23 07:31:14;;;;;;;15.23;4.80;;;5.50;99.90;;;;;;5083202;28;20040;-87
2024/03/23 07:33:48;;;;;;;10.32;3.45;;;5.70;99.90;;;;;;5065300;28;20110;-87
2024/03/23 07:36:14;;;;;;;15.27;4.13;;;5.70;99.90;;;;;;5066766;28;20045;-86
2024/03/23 07:38:46;;;;;;;15.05;3.67;;;5.60;99.90;;;;;;5047397;28;20055;-86
2024/03/23 07:41:17;;;;;;;11.55;3.60;;;5.50;99.90;;;;;;5048659;28;20051;-88
2024/03/23 07:43:43;;;;;;;;;;;5.50;99.90;;;;;;5050096;28;20059;-86
2024/03/23 07:46:09;;;;;;;11.55;3.80;;;5.40;99.90;;;;;;5065230;28;19960;-86
2024/03/23 07:48:35;;;;;;;9.90;4.03;;;5.40;99.90;;;;;;5064341;28;20064;-87
2024/03/23 07:51:05;;;;;;;11.80;3.17;;;5.40;99.90;;;;;;5052223;28;20044;-86
2024/03/23 07:53:32;;;;;;;12.15;3.85;;;5.40;99.90;;;;;;5047868;28;20068;-85
2024/03/23 07:56:08;;;;;;;11.38;3.40;;;5.40;99.90;;;;;;5069124;28;20283;-86
2024/03/23 07:58:34;;;;;;;11.93;3.55;;;5.40;99.90;;;;;;5047922;28;20041;-84
2024/03/23 08:01:10;;;;;;;8.63;3.15;;;5.40;99.90;;;;;;5068638;28;20052;-87
2024/03/23 08:03:37;;;;;;;14.40;3.85;;;5.40;99.90;;;;;;5049273;28;20045;-86
2024/03/23 08:06:14;;;;;;;9.80;3.00;;;5.40;99.90;;;;;;5079543;28;20503;-86
2024/03/23 08:08:42;;;;;;;14.25;3.35;;;5.40;99.90;;;;;;5070762;28;20052;-86
2024/03/23 08:11:08;;;;;;;13.60;3.75;;;5.30;99.90;;;;;;5048993;28;20037;-87
2024/03/23 08:13:35;;;;;;;10.27;3.40;;;5.30;99.90;;;;;;5050697;28;20514;-87
2024/03/23 08:16:02;;;;;;;17.33;4.00;;;5.30;99.90;;;;;;5081241;28;20128;-85
2024/03/23 08:18:31;;;;;;;17.70;3.90;;;5.20;99.90;;;;;;5050844;28;20045;-84
2024/03/23 08:21:03;;;;;;;14.52;4.45;;;5.20;99.90;;;;;;5047060;28;20036;-86
2024/03/23 08:23:30;;;;;;;15.30;4.20;;;5.10;99.90;;;;;;5047135;28;20053;-85
2024/03/23 08:26:03;;;;;;;10.98;3.97;;;5.10;99.90;;;;;;5048454;28;20079;-87
2024/03/23 08:28:29;;;;;;;13.10;3.60;;;5.00;99.90;;;;;;5064600;28;20117;-85
2024/03/23 08:30:55;;;;;;;12.38;4.00;;;5.00;99.90;;;;;;5062578;28;20045;-87
2024/03/23 08:33:21;;;;;;;15.27;4.53;;;5.00;99.90;;;;;;5067956;28;20528;-87
2024/03/23 08:35:59;;;;;;;16.77;3.53;;;5.00;99.90;;;;;;5050478;28;20052;-81
2024/03/23 08:38:26;;;;;;;11.13;4.30;;;5.00;99.90;;;;;;5063747;28;20079;-84
2024/03/23 08:40:59;;;;;;;14.73;4.57;;;5.10;99.90;;;;;;5048132;28;20076;-82
2024/03/23 08:43:26;;;;;;;15.95;4.30;;;5.20;99.90;;;;;;5049355;28;20132;-83
2024/03/23 08:45:52;;;;;;;14.93;4.80;;;5.30;99.90;;;;;;5063790;28;20056;-83
2024/03/23 08:48:21;;;;;;;15.15;4.32;;;5.40;99.90;;;;;;5063447;28;20534;-83
2024/03/23 08:50:47;;;;;;;13.20;4.20;;;5.50;99.90;;;;;;5065056;28;20488;-82
2024/03/23 08:53:14;;;;;;;13.38;4.45;;;5.60;99.90;;;;;;5060979;28;20037;-84
2024/03/23 08:55:40;;;;;;;13.93;4.60;;;5.80;99.90;;;;;;5047772;28;20055;-83
2024/03/23 08:58:08;;;;;;;12.40;5.10;;;6.00;99.90;;;;;;5060348;28;20049;-85
2024/03/23 09:00:34;;;;;;;15.60;5.75;;;6.40;99.90;;;;;;5063322;28;20559;-83
2024/03/23 09:03:01;;;;;;;14.15;5.07;;;6.60;99.90;;;;;;5064860;28;20045;-83
2024/03/23 09:05:28;;;;;;;17.10;5.22;;;6.80;99.90;;;;;;5060765;28;20123;-84
2024/03/23 09:07:54;;;;;;;17.33;4.95;;;6.80;99.90;;;;;;5047654;28;20041;-85
2024/03/23 09:10:20;;;;;;;13.13;4.63;;;6.90;99.90;;;;;;5059943;28;20044;-84
2024/03/23 09:12:46;;;;;;;16.63;4.95;;;6.80;99.90;;;;;;5046824;28;20041;-83
2024/03/23 09:15:12;;;;;;;13.80;5.22;;;6.70;99.90;;;;;;5049592;28;20102;-84
2024/03/23 09:17:40;;;;;;;15.68;4.20;;;6.70;99.90;;;;;;5068916;28;20064;-83
2024/03/23 09:20:06;;;;;;;12.90;4.00;;;6.60;99.90;;;;;;5076368;28;20044;-83
2024/03/23 09:22:32;;;;;;;12.68;4.43;;;6.60;99.90;;;;;;5065588;28;20043;-83
2024/03/23 09:24:58;;;;;;;15.15;5.25;;;6.60;99.90;;;;;;5047404;28;20044;-83
2024/03/23 09:27:23;;;;;;;13.70;4.28;;;6.40;99.90;;;;;;5046410;28;20044;-85
2024/03/23 09:29:49;;;;;;;14.25;3.42;;;6.50;99.90;;;;;;5062967;28;20075;-84
2024/03/23 09:32:15;;;;;;;20.48;4.68;;;6.70;99.90;;;;;;5049730;28;20055;-87
2024/03/23 09:34:41;;;;;;;16.75;4.43;;;7.00;99.90;;;;;;5046181;28;20128;-85
2024/03/23 09:37:06;;;;;;;16.33;4.45;;;7.20;99.90;;;;;;5063129;28;20495;-86
2024/03/23 09:39:32;;;;;;;19.92;5.32;;;7.40;99.90;;;;;;5062804;28;20115;-85
2024/03/23 09:41:58;;;;;;;12.45;3.65;;;7.50;99.90;;;;;;5063236;28;20051;-88
2024/03/23 09:44:26;;;;;;;17.58;4.55;;;7.50;99.90;;;;;;5060300;28;20037;-86
2024/03/23 09:46:51;;;;;;;14.48;3.58;;;7.60;99.90;;;;;;5048999;28;20041;-87
2024/03/23 09:49:17;;;;;;;17.70;4.22;;;7.70;99.90;;;;;;5048372;28;20070;-87
2024/03/23 09:51:43;;;;;;;14.40;4.35;;;7.60;99.90;;;;;;5064575;28;20064;-88
2024/03/23 09:54:09;;;;;;;12.77;4.60;;;7.50;99.90;;;;;;5079776;28;20068;-86
2024/03/23 09:56:35;;;;;;;12.02;3.90;;;7.30;99.90;;;;;;5046926;28;20055;-87
2024/03/23 09:59:02;;;;;;;10.68;3.65;;;7.20;99.90;;;;;;5046664;28;20055;-86
2024/03/23 10:01:30;;;;;;;12.57;3.47;;;7.10;99.90;;;;;;5048951;28;20044;-88
2024/03/23 10:03:56;;;;;;;11.23;2.90;;;7.00;99.90;;;;;;5079220;28;20536;-89
2024/03/23 10:06:24;;;;;;;12.48;3.38;;;6.90;99.90;;;;;;5060889;28;20504;-86
2024/03/23 10:08:51;;;;;;;11.63;3.25;;;6.80;99.90;;;;;;5047596;28;20048;-86
2024/03/23 10:11:19;;;;;;;11.27;3.20;;;6.70;99.90;;;;;;5044451;28;20162;-86
2024/03/23 10:13:46;;;;;;;17.63;3.75;;;6.70;99.90;;;;;;5061712;28;20041;-86
2024/03/23 10:16:23;;;;;;;14.23;3.90;;;6.60;99.90;;;;;;5048307;28;20036;-84
2024/03/23 10:18:49;;;;;;;10.07;3.15;;;6.50;99.90;;;;;;5080396;28;20113;-88
2024/03/23 10:21:16;;;;;;;10.10;2.70;;;6.40;99.90;;;;;;5047287;28;20064;-87
2024/03/23 10:23:46;;;;;;;11.40;2.90;;;6.30;99.90;;;;;;5051033;28;20039;-88
2024/03/23 10:26:18;;;;;;;8.93;2.63;;;6.20;99.90;;;;;;5049858;28;20033;-87
2024/03/23 10:28:52;;;;;;;11.07;2.97;;;6.20;99.90;;;;;;5061035;28;20512;-88
2024/03/23 10:31:19;;;;;;;7.93;2.55;;;6.40;99.90;;;;;;5058199;28;20072;-87
2024/03/23 10:33:49;;;;;;;8.10;2.53;;;6.70;99.90;;;;;;5083204;28;20041;-87
2024/03/23 10:36:20;;;;;;;9.02;2.00;;;6.90;99.90;;;;;;5064864;28;20049;-86
2024/03/23 10:38:47;;;;;;;7.00;2.35;;;7.30;99.90;;;;;;5060319;28;20037;-91
2024/03/23 10:41:13;;;;;;;7.72;2.50;;;7.60;99.90;;;;;;5051419;28;20048;-86
2024/03/23 10:43:39;;;;;;;11.93;2.80;;;8.00;99.90;;;;;;5082105;28;20106;-87
2024/03/23 10:46:06;;;;;;;8.70;2.05;;;8.30;99.90;;;;;;5066180;28;20682;-87
2024/03/23 10:48:32;;;;;;;11.07;2.15;;;8.60;99.90;;;;;;5049547;28;20044;-92
2024/03/23 10:50:58;;;;;;;7.00;2.20;;;8.70;99.90;;;;;;5066328;28;20071;-87
2024/03/23 10:53:28;;;;;;;7.88;1.63;;;8.70;99.90;;;;;;5051102;28;20040;-87
2024/03/23 10:55:55;;;;;;;4.78;1.45;;;8.60;99.90;;;;;;5050108;28;20043;-89
2024/03/23 10:58:28;;;;;;;5.47;1.52;;;8.40;99.90;;;;;;5060050;28;20556;-87
2024/03/23 11:00:54;;;;;;;5.78;1.40;;;8.10;99.90;;;;;;5062842;28;20079;-86
2024/03/23 11:03:30;;;;;;;6.85;1.40;;;7.50;99.90;;;;;;5048286;28;20480;-86
2024/03/23 11:05:56;;;;;;;5.10;1.40;;;7.10;99.90;;;;;;5067469;28;20051;-87
2024/03/23 11:08:32;;;;;;;3.53;1.35;;;6.80;99.90;;;;;;5048286;28;20075;-85
2024/03/23 11:11:18;;;;;;;4.05;1.10;;;6.60;99.90;;;;;;5065559;28;20101;-90
2024/03/23 11:13:47;;;;;;;5.50;1.55;;;6.50;99.90;;;;;;5051639;28;20110;-90
2024/03/23 11:16:35;;;;;;;5.38;1.45;;;6.40;99.90;;;;;;5065058;28;20036;-89
2024/03/23 11:19:36;;;;;;;10.23;2.60;;;6.40;99.90;;;;;;5065741;28;20037;-89
2024/03/23 11:22:06;;;;;;;8.82;2.22;;;6.60;99.90;;;;;;5066121;28;20123;-86
2024/03/23 11:24:32;;;;;;;7.68;2.33;;;6.70;99.90;;;;;;5047706;28;20048;-89
2024/03/23 11:27:01;;;;;;;7.75;1.92;;;6.80;99.90;;;;;;5047866;28;21073;-88
2024/03/23 11:29:29;;;;;;;11.05;2.00;;;6.80;99.90;;;;;;5050688;28;20053;-90
2024/03/23 11:31:55;;;;;;;5.45;1.52;;;6.80;99.90;;;;;;5047160;28;20037;-89
2024/03/23 11:34:22;;;;;;;6.30;1.60;;;6.90;99.90;;;;;;5047548;28;20068;-89
2024/03/23 11:36:48;;;;;;;6.07;1.85;;;7.10;99.90;;;;;;5046700;28;20049;-89
2024/03/23 11:39:16;;;;;;;5.63;1.48;;;7.40;99.90;;;;;;5065761;28;20070;-88
2024/03/23 11:41:53;;;;;;;4.13;1.20;;;7.50;99.90;;;;;;5061572;28;20044;-88
2024/03/23 11:44:20;;;;;;;6.80;1.80;;;7.70;99.90;;;;;;5045404;28;20044;-87
2024/03/23 11:46:46;;;;;;;7.93;1.70;;;7.90;99.90;;;;;;5046670;28;20538;-88
2024/03/23 11:49:27;;;;;;;8.40;2.08;;;8.10;99.90;;;;;;5048406;28;20064;-87
2024/03/23 11:51:54;;;;;;;7.53;2.13;;;8.30;99.90;;;;;;5047087;28;20052;-85
2024/03/23 11:54:24;;;;;;;12.18;2.88;;;8.40;99.90;;;;;;5048627;28;20504;-84
2024/03/23 11:57:04;;;;;;;9.98;2.30;;;8.60;99.90;;;;;;5059933;28;20040;-85
2024/03/23 11:59:38;;;;;;;11.82;2.70;;;8.80;99.90;;;;;;5060768;28;20040;-89
2024/03/23 12:02:11;;;;;;;8.02;2.58;;;8.90;99.90;;;;;;5065723;28;20032;-88
2024/03/23 12:04:37;;;;;;;4.03;0.75;;;9.00;99.90;;;;;;5050783;28;20045;-91
2024/03/23 12:07:29;;;;;;;3.00;0.50;;;8.90;99.90;;;;;;5066997;28;20152;-87
2024/03/23 12:10:06;;;;;;;3.55;0.70;;;8.60;99.90;;;;;;5058758;28;20516;-90
2024/03/23 12:12:32;;;;;;;2.55;0.52;;;8.40;99.90;;;;;;5068591;28;20074;-91
2024/03/23 12:15:03;;;;;;;3.53;0.80;;;8.30;99.90;;;;;;5050955;28;20040;-89
2024/03/23 12:17:29;;;;;;;3.78;0.90;;;8.40;99.90;;;;;;5051538;28;20052;-92
2024/03/23 12:19:55;;;;;;;6.78;1.73;;;8.50;99.90;;;;;;5066710;28;20048;-89
2024/03/23 12:22:21;;;;;;;5.25;1.30;;;8.60;99.90;;;;;;5052684;28;20056;-90
2024/03/23 12:24:48;;;;;;;6.20;1.77;;;8.80;99.90;;;;;;5050172;28;20037;-88
2024/03/23 12:27:14;;;;;;;8.02;1.75;;;8.90;99.90;;;;;;5051163;28;20041;-86
2024/03/23 12:29:47;;;;;;;9.00;2.03;;;9.00;99.90;;;;;;5053706;28;20508;-90
2024/03/23 12:32:13;;;;;;;8.70;2.05;;;9.10;99.90;;;;;;5050914;28;20495;-85
2024/03/23 12:34:39;;;;;;;10.02;2.70;;;9.00;99.90;;;;;;5052379;28;20489;-91
2024/03/23 12:37:09;;;;;;;8.13;2.30;;;9.00;99.90;;;;;;5050290;28;20174;-89
2024/03/23 12:39:35;;;;;;;6.18;1.92;;;8.80;99.90;;;;;;5065955;28;20041;-89
2024/03/23 12:42:04;;;;;;;10.27;2.60;;;8.60;99.90;;;;;;5066657;28;20500;-86
2024/03/23 12:44:31;;;;;;;12.13;3.47;;;8.60;99.90;;;;;;5066817;28;20110;-88
2024/03/23 12:46:57;;;;;;;9.52;2.67;;;8.50;99.90;;;;;;5048742;28;20047;-87
2024/03/23 12:49:23;;;;;;;9.05;2.58;;;8.50;99.90;;;;;;5070494;28;20044;-89